EDT,Max TemperatureF,Mean TemperatureF,Min TemperatureF,Max Dew PointF,MeanDew PointF,Min DewpointF,Max Humidity, Mean Humidity, Min Humidity, Max Sea Level PressureIn, Mean Sea Level PressureIn, Min Sea Level PressureIn, Max VisibilityMiles, Mean VisibilityMiles, Min VisibilityMiles, Max Wind SpeedMPH, Mean Wind SpeedMPH, Max Gust SpeedMPH,PrecipitationIn, CloudCover, Events, WindDirDegrees
2014-3-1,12,4,-3,9,-2,-12,90,68,44,30.33,30.14,29.96,10,10,4,16,9,23,0.00,3,Snow,292
2014-3-2,1,-4,-8,-7,-10,-13,83,72,61,30.35,30.31,30.25,10,9,1,17,7,23,0.00,1,,266
2014-3-3,10,-2,-12,5,-7,-18,84,74,54,30.42,30.36,30.26,10,10,10,16,8,22,0.00,1,Snow,259
2014-3-4,16,12,7,10,8,4,92,82,68,30.27,30.20,30.16,10,7,1,13,6,18,0.00,7,Snow,268
2014-3-5,14,6,-2,5,0,-6,89,74,62,30.57,30.47,30.27,10,10,10,10,7,,0.00,0,,64
2014-3-6,23,14,4,16,6,0,85,71,49,30.53,30.34,30.04,10,10,3,16,9,23,0.00,0,,137
2014-3-7,32,23,14,29,17,3,100,78,56,30.03,29.90,29.80,10,7,1,14,9,22,0.01,5,Snow,229
2014-3-8,24,16,7,23,12,3,98,81,55,30.18,30.12,29.97,10,10,7,10,7,16,0.01,1,Snow,337
2014-3-9,34,18,3,28,13,0,90,75,51,30.13,29.87,29.61,10,10,7,22,9,30,0.00,5,,225
2014-3-10,40,34,27,32,30,27,99,88,72,29.63,29.52,29.39,10,8,4,16,8,30,0.00,2,,236
2014-3-11,41,34,25,31,26,17,100,78,55,29.85,29.68,29.50,10,9,3,15,7,23,0.00,2,,310
2014-3-12,25,13,1,18,0,-8,82,62,42,30.07,29.96,29.85,10,10,10,21,11,25,0.00,1,,1
2014-3-13,26,10,-6,19,3,-10,88,72,51,30.06,29.93,29.71,10,10,10,13,6,22,0.00,4,,223
2014-3-14,38,31,24,33,29,19,100,90,76,29.70,29.46,29.35,10,6,0,15,9,24,0.01,6,Fog-Snow,227
2014-3-15,30,16,3,31,11,-2,100,77,54,30.37,30.00,29.57,10,9,1,16,12,24,0.01,5,Snow,309
2014-3-16,12,4,-5,-2,-7,-12,81,64,42,30.48,30.39,30.23,10,10,10,10,6,,0.00,0,,309
2014-3-17,21,10,-1,15,5,-6,85,70,50,30.22,30.04,29.92,10,10,10,16,7,25,0.00,4,,121
2014-3-18,29,24,19,27,19,8,94,79,63,30.02,29.99,29.95,10,10,7,18,10,31,0.00,7,,103
2014-3-19,29,28,27,29,27,22,100,93,81,29.98,29.69,29.55,10,6,0,17,12,28,0.01,8,Snow,62
2014-3-20,34,28,23,30,21,14,100,76,46,30.01,29.82,29.64,10,9,2,18,13,28,0.01,5,Snow,298
2014-3-21,34,25,16,28,19,14,98,76,51,30.03,29.95,29.80,10,10,2,18,7,25,0.00,5,Snow,112
2014-3-22,27,17,7,28,14,1,99,79,54,30.29,30.01,29.78,10,9,2,21,9,30,0.00,5,Snow,316
2014-3-23,19,11,3,9,3,-1,90,72,54,30.34,30.31,30.28,10,10,7,20,9,23,0.00,3,,286
2014-3-24,20,10,1,13,4,-2,83,72,60,30.30,30.15,29.96,10,10,7,18,7,26,0.00,1,,232
2014-3-25,20,12,5,8,2,-3,90,67,41,30.13,29.96,29.85,10,10,1,20,8,30,0.00,4,Snow,314
2014-3-26,23,12,2,13,5,-4,77,70,55,30.22,30.15,30.07,10,10,10,16,8,24,0.00,1,,229
2014-3-27,34,28,22,33,26,11,100,91,60,30.06,29.79,29.56,10,4,0,12,7,20,0.21,8,Snow,150
2014-3-28,33,29,24,34,30,23,100,93,78,30.25,29.80,29.47,10,7,0,13,7,20,0.08,7,Fog-Snow,338
2014-3-29,35,28,20,25,19,13,92,73,42,30.31,30.26,30.21,10,10,10,10,5,,0.00,2,,39
2014-3-30,35,26,18,24,19,12,82,69,49,30.25,30.16,30.06,10,10,10,10,5,,0.00,0,,104
2014-3-31,36,32,29,31,29,25,96,85,74,30.12,30.04,29.87,10,10,10,22,11,32,0.00,3,,98